Tiempo atmosférico en la estación meteorológica de Beasain, Gipuzkoa (245 m.)



Fecha
DESCASC
Temp. máxima en grados centígrados (hora)
DESCASC
Temp. mínima en grados centígrados (hora)
DESCASC
Temp. media en grados centígrados
DESCASC
Racha de viento máxima en m/sg (hora)
DESCASC
Velocidad máxima media en intervalos de 10 minutos(hora)
DESCASC
Precipitaciones diarias en mm
DESCASC
Precipitaciones de 00:00 a 06:00 en mm
DESCASC
Precipitaciones de 06:00 a 12:00 en mm
DESCASC
Precipitaciones de 12:00 a 18:00 en mm
DESCASC
Precipitaciones de 18:00 a 24:00 en mm
DESCASC
16-01-2020 15.8 (16:30) 6.2 (00:00) 11 15.56 (23:59) 8.33 (13:50) 0 0 0 0 0
15-01-2020 15.5 (15:20) 6.2 (23:59) 10.8 13.33 (08:50) 6.67 (10:20) 0 0 0 0 0
14-01-2020 15.1 (13:40) 7.2 (00:00) 11.2 13.33 (21:10) 8.33 (22:30) 0 0 0 0 0
13-01-2020 13.2 (15:30) -0.6 (05:00) 6.3 6.39 (17:00) 3.06 (17:00) 0 0 0 0 0
12-01-2020 12.1 (15:40) -1.8 (-00:0) 5.2 2.22 (15:20) 1.39 (16:20) 0 0 0 0 0
11-01-2020 11.4 (15:30) 0.5 (00:00) 5.9 2.5 (05:10) 1.67 (05:10) 0 0 0 0 0
10-01-2020 9.9 (16:00) 4.9 (00:00) 7.4 7.5 (13:30) 3.61 (13:30) 7.8 0.4 3.4 3.6 0.4
09-01-2020 15.2 (14:00) 7.2 (00:00) 11.2 12.22 (15:40) 6.39 (14:50) 2.4 0 0 0 2.4
08-01-2020 16.4 (15:30) 3.4 (00:00) 9.9 4.72 (23:00) 2.22 (06:30) 0 0 0 0 0
07-01-2020 14.8 (15:40) 1 (00:00) 7.9 3.06 (04:30) 2.22 (04:30) 0 0 0 0 0
06-01-2020 14.2 (15:30) -0.1 (00:00) 7 6.39 (17:10) 3.33 (17:00) 0 0 0 0 0
05-01-2020 11.7 (15:00) 1.6 (00:00) 6.6 4.17 (17:00) 2.5 (17:10) 0.2 0 0.2 0 0
04-01-2020 9.8 (12:50) 4.9 (00:00) 7.4 4.44 (12:10) 2.5 (12:10) 2.4 0.2 1.6 0.6 0
03-01-2020 6 (14:40) -0.6 (-00:0) 2.7 3.61 (10:50) 2.78 (10:50) 0.6 0 0 0.2 0.4
02-01-2020 10.7 (15:50) -1.8 (-00:0) 4.4 2.22 (16:10) 1.39 (01:50) 0 0 0 0 0
01-01-2020 12.9 (15:40) 1 (00:00) 6.9 3.33 (14:50) 1.67 (13:20) 0 0 0 0 0
31-12-2019 11.8 (15:50) -2.2 (-00:0) 4.8 3.61 (14:50) 2.22 (14:50) 0 0 0 0 0
30-12-2019 -- (--) -- (--) -- -- (--) -- (--) -- 0 0 0 --
29-12-2019 12.8 (15:20) -1.2 (-00:0) 5.8 2.5 (01:10) 1.67 (01:10) 0 0 0 0 0
28-12-2019 14.2 (15:00) -0.9 (-00:0) 6.6 2.78 (14:20) 1.67 (05:40) 0 0 0 0 0
27-12-2019 13 (15:30) -0.5 (-00:0) 6.3 2.5 (15:00) 1.39 (03:20) 0 0 0 0 0
26-12-2019 14.7 (04:40) 3.3 (00:00) 9 7.5 (05:40) 3.89 (06:10) 0 0 0 0 0
25-12-2019 17.2 (15:50) 3.1 (00:00) 10.2 2.78 (18:00) 1.67 (18:00) 0 0 0 0 0
24-12-2019 18.6 (15:30) 4.8 (00:00) 11.7 3.06 (02:50) 1.94 (15:20) 0 0 0 0 0
23-12-2019 14.7 (15:00) 5.4 (00:00) 10 4.17 (01:20) 1.67 (01:30) 0 0 0 0 0
22-12-2019 15.7 (13:40) 7.2 (00:00) 11.4 13.61 (17:50) 5.28 (17:50) 10.2 1.6 0 3 5.6
21-12-2019 19.6 (15:10) 6 (00:00) 12.8 18.33 (18:30) 7.22 (18:40) 0.8 0 0 0.8 0
20-12-2019 14.8 (04:20) 8.8 (00:00) 11.8 15 (03:00) 6.67 (02:20) 14.8 7.4 0 3.8 3.6
19-12-2019 16.1 (23:20) 12.1 (04:30) 14.1 18.33 (07:10) 9.72 (19:00) 1 0 0 0 1

Gráficas

Temp. máximas Temp. mínimas Temp. medias Precipitaciones Rachas de viento máximas Velocidades máximas media en intervalos de 10 minutos

Datos horarios

Fecha y hora oficial Temperatura (ºC) Velocidad del viento (km/h) Dirección del viento Racha (km/h) Dirección de racha Precipitación (mm) Presión (hPa) Tendencia (hPa) Humedad (%)
2020-01-17 23:00:00 4.5 2 Norte 5 Noroeste 0 -- -- 95
2020-01-17 22:00:00 4.7 4 Norte 5 Noroeste 0 -- -- 93
2020-01-17 21:00:00 5.4 0 Calma 6 Norte 0 -- -- 90
2020-01-17 20:00:00 6 5 Norte 6 Norte 0 -- -- 87
2020-01-17 19:00:00 7.2 4 Noroeste 12 Noroeste 0 -- -- 82
2020-01-17 18:00:00 8.7 4 Norte 6 Nordeste 0 -- -- 82
2020-01-17 17:00:00 10.4 3 Noroeste 14 Oeste 0.2 -- -- 67
2020-01-17 16:00:00 9.8 5 Noroeste 16 Norte 0 -- -- 77
2020-01-17 15:00:00 9.9 10 Noroeste 27 Norte 0 -- -- 72
2020-01-17 14:00:00 9.6 9 Norte 15 Norte 0 -- -- 78
2020-01-17 13:00:00 9.1 3 Noroeste 9 Norte 0 -- -- 88
2020-01-17 12:00:00 8.5 2 Noroeste 25 Oeste 0 -- -- 90
2020-01-17 11:00:00 8.1 10 Noroeste 29 Noroeste 0.8 -- -- 89
2020-01-17 10:00:00 8.2 4 Oeste 26 Norte 0.8 -- -- 92
2020-01-17 09:00:00 9.1 19 Norte 39 Norte 0 -- -- 81
2020-01-17 08:00:00 10.9 6 Norte 13 Norte 0 -- -- 75
2020-01-17 07:00:00 12.5 8 Este 23 Sur 0 -- -- 62
2020-01-17 06:00:00 12.3 4 Noroeste 15 Noroeste 0 -- -- 60
2020-01-17 05:00:00 12.7 7 Nordeste 22 Sudeste 0 -- -- 59
2020-01-17 04:00:00 13 8 Oeste 36 Sudoeste 0 -- -- 56
2020-01-17 03:00:00 14.1 13 Sudeste 38 Sur 0 -- -- 52
2020-01-17 02:00:00 14.5 10 Sudoeste 41 Sur 0 -- -- 52
2020-01-17 01:00:00 13.9 13 Sur 46 Sudeste 0 -- -- 54
2020-01-17 00:00:00 13.7 23 Sur 56 Sur 0 -- -- 54
2020-01-16 23:00:00 13.8 15 Sudeste 26 Sudeste 0 -- -- 54
2020-01-16 22:00:00 13.7 13 Sur 46 Sudeste 0 -- -- 59
2020-01-16 21:00:00 13.8 17 Sur 37 Sudeste 0 -- -- 62
2020-01-16 20:00:00 13.9 12 Sur 32 Sudoeste 0 -- -- 63
2020-01-16 19:00:00 14 13 Sur 27 Sudeste 0 -- -- 64
2020-01-16 18:00:00 14.2 8 Sur 32 Sur 0 -- -- 64
2020-01-16 17:00:00 15.4 12 Sur 34 Sudeste 0 -- -- 59
2020-01-16 16:00:00 15.5 16 Sudeste 33 Sur 0 -- -- 58
2020-01-16 15:00:00 14.9 10 Sur 32 Sudeste 0 -- -- 60
2020-01-16 14:00:00 14.5 19 Sur 49 Sudeste 0 -- -- 60
2020-01-16 13:00:00 14.2 28 Sudeste 44 Sur 0 -- -- 61
2020-01-16 12:00:00 13 23 Sur 46 Sudeste 0 -- -- 64
2020-01-16 11:00:00 12.2 20 Sur 41 Sudeste 0 -- -- 66
2020-01-16 10:00:00 12.2 23 Sur 41 Sudeste 0 -- -- 65
2020-01-16 09:00:00 10.7 18 Sur 41 Sudeste 0 -- -- 71
2020-01-16 08:00:00 10.7 12 Sur 32 Sur 0 -- -- 70
2020-01-16 07:00:00 11.1 13 Sur 29 Sur 0 -- -- 68
2020-01-16 06:00:00 11.8 20 Sudeste 38 Sudeste 0 -- -- 64
2020-01-16 05:00:00 10.1 6 Sur 29 Sudeste 0 -- -- 71
2020-01-16 04:00:00 9.8 11 Sudeste 24 Sur 0 -- -- 72
2020-01-16 03:00:00 7.3 3 Norte 13 Sur 0 -- -- 84
2020-01-16 02:00:00 7.4 5 Sudoeste 15 Sur 0 -- -- 82
2020-01-16 01:00:00 7.5 4 Oeste 15 Sudeste 0 -- -- 83
2020-01-16 00:00:00 6.2 4 Norte 8 Norte 0 -- -- 90
2020-01-15 23:00:00 7.2 3 Noroeste 9 Norte 0 -- -- 85
2020-01-15 22:00:00 7.8 5 Norte 8 Norte 0 -- -- 84
2020-01-15 21:00:00 8.2 4 Norte 10 Norte 0 -- -- 82
2020-01-15 20:00:00 9 4 Norte 11 Noroeste 0 -- -- 79
2020-01-15 19:00:00 10.9 4 Nordeste 10 Norte 0 -- -- 71
2020-01-15 18:00:00 13.7 3 Noroeste 19 Noroeste 0 -- -- 61
2020-01-15 17:00:00 15.1 10 Sudeste 27 Norte 0 -- -- 54
2020-01-15 16:00:00 15.2 12 Nordeste 41 Sur 0 -- -- 53
2020-01-15 15:00:00 15 7 Sudeste 18 Sur 0 -- -- 55
2020-01-15 14:00:00 13.7 6 Sudoeste 31 Sur 0 -- -- 56
2020-01-15 13:00:00 11.8 3 Sudeste 15 Este 0 -- -- 60
2020-01-15 12:00:00 12.1 5 Este 38 Sudeste 0 -- -- 58
2020-01-15 11:00:00 12.8 18 Sur 39 Sur 0 -- -- 55
2020-01-15 10:00:00 12.5 14 Sur 44 Sur 0 -- -- 53
2020-01-15 09:00:00 12.4 21 Sur 48 Sur 0 -- -- 51
2020-01-15 08:00:00 9.3 5 Noroeste 27 Sudeste 0 -- -- 64
2020-01-15 07:00:00 9.4 12 Sudeste 42 Sudeste 0 -- -- 61
2020-01-15 06:00:00 11.1 14 Sur 36 Sur 0 -- -- 58
2020-01-15 05:00:00 11.3 13 Sudeste 47 Sudeste 0 -- -- 58
2020-01-15 04:00:00 10.8 15 Sur 42 Sur 0 -- -- 59
2020-01-15 03:00:00 10.7 14 Sur 44 Sudeste 0 -- -- 58
2020-01-15 02:00:00 10.4 15 Sur 36 Sudoeste 0 -- -- 58
2020-01-15 01:00:00 9.9 9 Sudeste 25 Sudeste 0 -- -- 57
2020-01-15 00:00:00 10.4 10 Sudeste 40 Sudeste 0 -- -- 55
2020-01-14 23:00:00 9.8 30 Sur 47 Sudeste 0 -- -- 57
2020-01-14 22:00:00 9.3 23 Sur 48 Sudeste 0 -- -- 58
2020-01-14 21:00:00 9.8 22 Sur 41 Sur 0 -- -- 55
2020-01-14 20:00:00 10.3 22 Sur 42 Sudeste 0 -- -- 54
2020-01-14 19:00:00 11.6 16 Sur 29 Sur 0 -- -- 53
2020-01-14 18:00:00 12.6 9 Sur 31 Sur 0 -- -- 51
2020-01-14 17:00:00 13.8 16 Sudoeste 44 Sudoeste 0 -- -- 47
2020-01-14 16:00:00 14.9 16 Sur 33 Sur 0 -- -- 44
2020-01-14 15:00:00 14.9 17 Sur 45 Sur 0 -- -- 45
2020-01-14 14:00:00 14.7 20 Sur 39 Sur 0 -- -- 47
2020-01-14 13:00:00 14.6 13 Sur 35 Sudeste 0 -- -- 51
2020-01-14 12:00:00 14.1 9 Sur 22 Sudeste 0 -- -- 56
2020-01-14 11:00:00 10.7 5 Norte 24 Sudeste 0 -- -- 71
2020-01-14 10:00:00 10.4 9 Sudeste 22 Sudeste 0 -- -- 66
2020-01-14 09:00:00 8.7 7 Sudeste 23 Sudeste 0 -- -- 72
2020-01-14 08:00:00 8.2 5 Sudeste 14 Sudeste 0 -- -- 74
2020-01-14 07:00:00 8.1 4 Oeste 16 Este 0 -- -- 72
2020-01-14 06:00:00 9 4 Sudeste 13 Sudeste 0 -- -- 67
2020-01-14 05:00:00 8.9 4 Este 15 Sudeste 0 -- -- 63
2020-01-14 04:00:00 9 7 Este 15 Sudeste 0 -- -- 61
2020-01-14 03:00:00 10 6 Norte 18 Noroeste 0 -- -- 60
2020-01-14 02:00:00 7.8 6 Norte 11 Este 0 -- -- 64
2020-01-14 01:00:00 8.9 6 Sudeste 12 Sudeste 0 -- -- 55
2020-01-14 00:00:00 7.2 5 Norte 12 Nordeste 0 -- -- 60
2020-01-13 23:00:00 7.1 4 Nordeste 10 Noroeste 0 -- -- 56
2020-01-13 22:00:00 7.9 6 Nordeste 20 Sudeste 0 -- -- 54
2020-01-13 21:00:00 6.3 4 Noroeste 10 Oeste 0 -- -- 67
2020-01-13 20:00:00 7.1 4 Norte 21 Sur 0 -- -- 66
2020-01-13 19:00:00 9 3 Noroeste 22 Sur 0 -- -- 59
2020-01-13 18:00:00 9.8 3 Este 23 Sur 0 -- -- 59
2020-01-13 17:00:00 12 11 Sur 23 Sur 0 -- -- 50
2020-01-13 16:00:00 13 2 Sudoeste 13 Sur 0 -- -- 60
2020-01-13 15:00:00 12.4 5 Sur 14 Sur 0 -- -- 54
2020-01-13 14:00:00 9.8 4 Sudeste 10 Sudoeste 0 -- -- 77
2020-01-13 13:00:00 7.5 3 Sudeste 7 Sudeste 0 -- -- 100
2020-01-13 12:00:00 4.4 3 Sur 10 Sudeste 0 -- -- 100
2020-01-13 11:00:00 1.3 0 Calma 10 Sudeste 0 -- -- 100
2020-01-13 10:00:00 -0.1 3 Sudeste 5 Sudeste 0 -- -- 100
2020-01-13 09:00:00 -0.5 4 Sudeste 6 Sudeste 0 -- -- 100
2020-01-13 08:00:00 -0.4 2 Este 10 Sudeste 0 -- -- 100
2020-01-13 07:00:00 -0.2 3 Norte 4 Noroeste 0 -- -- 100
2020-01-13 06:00:00 -0.4 0 Calma 5 Sudeste 0 -- -- 100
2020-01-13 05:00:00 -0.6 5 Sudeste 9 Sudeste 0 -- -- 100
2020-01-13 04:00:00 -0.3 3 Norte 6 Sudeste 0 -- -- 100
2020-01-13 03:00:00 0.2 0 Calma 3 Norte 0 -- -- 100
2020-01-13 02:00:00 0.8 2 Norte 3 Noroeste 0 -- -- 100
2020-01-13 01:00:00 1.1 0 Calma 5 Este 0 -- -- 100
2020-01-13 00:00:00 1.5 2 Este 3 Sudeste 0 -- -- 100
2020-01-12 23:00:00 2.1 0 Calma 4 Norte 0 -- -- 100
2020-01-12 22:00:00 2.8 0 Calma 3 Noroeste 0 -- -- 99
2020-01-12 21:00:00 3.4 2 Noroeste 3 Noroeste 0 -- -- 97
2020-01-12 20:00:00 4.3 2 Sudeste 3 Noroeste 0 -- -- 95
2020-01-12 19:00:00 5.7 0 Calma 5 Norte 0 -- -- 91
2020-01-12 18:00:00 7.6 3 Norte 6 Noroeste 0 -- -- 84
2020-01-12 17:00:00 10.2 4 Noroeste 8 Noroeste 0 -- -- 71
2020-01-12 16:00:00 12.1 2 Norte 8 Este 0 -- -- 64
2020-01-12 15:00:00 11.2 3 Sudoeste 5 Oeste 0 -- -- 73
2020-01-12 14:00:00 9.3 3 Sudoeste 6 Sur 0 -- -- 81
2020-01-12 13:00:00 6.7 2 Sudoeste 6 Sur 0 -- -- 94
2020-01-12 12:00:00 3 0 Calma 5 Sur 0 -- -- 100
2020-01-12 11:00:00 0.2 0 Calma 4 Noroeste 0 -- -- 100
2020-01-12 10:00:00 -1.1 3 Sudeste 4 Sudeste 0 -- -- 100
2020-01-12 09:00:00 -1.7 0 Calma 6 Sur 0 -- -- 100
2020-01-12 08:00:00 -1.5 0 Calma 4 Noroeste 0 -- -- 100
2020-01-12 07:00:00 -1.4 0 Calma 4 Sudeste 0 -- -- 100
2020-01-12 06:00:00 -1.1 2 Norte 4 Sur 0 -- -- 100
2020-01-12 05:00:00 -0.9 2 Norte 5 Sur 0 -- -- 100
2020-01-12 04:00:00 -0.9 3 Sudeste 4 Sur 0 -- -- 100
2020-01-12 03:00:00 -0.6 0 Calma 5 Sudeste 0 -- -- 100
2020-01-12 02:00:00 0.1 0 Calma 4 Norte 0 -- -- 100
2020-01-12 01:00:00 0.1 0 Calma 4 Sudeste 0 -- -- 100
2020-01-12 00:00:00 0.5 0 Calma 6 Sudeste 0 -- -- 100
2020-01-11 23:00:00 1.3 3 Noroeste 5 Noroeste 0 -- -- 100
2020-01-11 22:00:00 1.8 0 Calma 6 Sudeste 0 -- -- 100
2020-01-11 21:00:00 2.6 0 Calma 5 Noroeste 0 -- -- 99
2020-01-11 20:00:00 3.7 0 Calma 3 Norte 0 -- -- 98
2020-01-11 19:00:00 4.7 0 Calma 4 Noroeste 0 -- -- 96
2020-01-11 18:00:00 6.1 3 Norte 9 Noroeste 0 -- -- 93
2020-01-11 17:00:00 8.5 5 Noroeste 8 Noroeste 0 -- -- 82
2020-01-11 16:00:00 9.8 4 Noroeste 8 Sudeste 0 -- -- 76
2020-01-11 15:00:00 11.2 3 Sur 9 Sudoeste 0 -- -- 73
2020-01-11 14:00:00 8.8 3 Oeste 7 Sudeste 0 -- -- 90
2020-01-11 13:00:00 5.9 4 Sur 8 Sur 0 -- -- 100
2020-01-11 12:00:00 4.8 4 Sur 8 Sur 0 -- -- 100
2020-01-11 11:00:00 3.9 3 Noroeste 6 Norte 0 -- -- 100
2020-01-11 10:00:00 3.6 3 Sudoeste 6 Sur 0 -- -- 100
2020-01-11 09:00:00 3.4 2 Sudoeste 5 Norte 0 -- -- 100
2020-01-11 08:00:00 3.4 3 Noroeste 8 Noroeste 0 -- -- 100
2020-01-11 07:00:00 3.7 3 Norte 7 Norte 0 -- -- 100
2020-01-11 06:00:00 3.9 0 Calma 9 Norte 0 -- -- 100
2020-01-11 05:00:00 4.2 4 Noroeste 9 Norte 0 -- -- 100
2020-01-11 04:00:00 4.7 5 Norte 8 Norte 0 -- -- 100
2020-01-11 03:00:00 4.9 4 Norte 5 Norte 0 -- -- 100
2020-01-11 02:00:00 4.6 3 Norte 4 Noroeste 0 -- -- 100
2020-01-11 01:00:00 4.3 2 Sudeste 5 Norte 0 -- -- 100
2020-01-11 00:00:00 4.9 3 Norte 9 Noroeste 0 -- -- 100
2020-01-10 23:00:00 6.2 4 Noroeste 6 Norte 0 -- -- 100
2020-01-10 22:00:00 6.4 2 Norte 7 Norte 0 -- -- 100
2020-01-10 21:00:00 6.6 3 Nordeste 5 Norte 0 -- -- 100
2020-01-10 20:00:00 6.9 4 Norte 6 Norte 0.2 -- -- 100
2020-01-10 19:00:00 7 3 Nordeste 5 Norte 0.2 -- -- 99
2020-01-10 18:00:00 7.4 2 Noroeste 6 Sudeste 0.4 -- -- 98
2020-01-10 17:00:00 7.9 5 Norte 14 Nordeste 0.4 -- -- 93
2020-01-10 16:00:00 9.9 2 Noroeste 16 Noroeste 0 -- -- 90
2020-01-10 15:00:00 9.1 0 Calma 15 Norte 0.4 -- -- 95
2020-01-10 14:00:00 8.2 6 Norte 27 Noroeste 2.2 -- -- 93
2020-01-10 13:00:00 8.8 2 Oeste 10 Oeste 0.2 -- -- 97
2020-01-10 12:00:00 7.6 0 Calma 9 Sur 2 -- -- 100
2020-01-10 11:00:00 7.2 4 Este 12 Sudeste 0.4 -- -- 100
2020-01-10 10:00:00 6.6 2 Sudeste 9 Sudeste 0 -- -- 100
2020-01-10 09:00:00 6.1 3 Noroeste 12 Noroeste 0.2 -- -- 100
2020-01-10 08:00:00 6 3 Noroeste 8 Noroeste 0.4 -- -- 100
2020-01-10 07:00:00 6.5 0 Calma 7 Noroeste 0.4 -- -- 99
2020-01-10 06:00:00 6.5 2 Sudeste 8 Noroeste 0 -- -- 99
2020-01-10 05:00:00 6.7 3 Noroeste 15 Noroeste 0.2 -- -- 96
2020-01-10 04:00:00 7.1 8 Noroeste 15 Noroeste 0 -- -- 96
2020-01-10 03:00:00 7.3 2 Sudeste 17 Noroeste 0.2 -- -- 98
2020-01-10 02:00:00 7.2 4 Noroeste 9 Noroeste 0 -- -- 100
2020-01-10 01:00:00 7.7 3 Norte 6 Noroeste 0 -- -- 100
2020-01-10 00:00:00 7.9 2 Norte 7 Noroeste 0 -- -- 100
2020-01-09 23:00:00 8.1 3 Sur 6 Norte 0.2 -- -- 99
2020-01-09 22:00:00 8.4 3 Norte 6 Este 1.2 -- -- 98
2020-01-09 21:00:00 8.8 4 Norte 6 Noroeste 0.4 -- -- 96
2020-01-09 20:00:00 10.4 8 Noroeste 20 Noroeste 0.6 -- -- 85
2020-01-09 19:00:00 11 11 Noroeste 37 Norte 0 -- -- 78
2020-01-09 18:00:00 12.1 17 Norte 44 Noroeste 0 -- -- 74
2020-01-09 17:00:00 13.5 4 Noroeste 35 Sur 0 -- -- 61
2020-01-09 16:00:00 14.7 18 Sur 44 Sudeste 0 -- -- 55
2020-01-09 15:00:00 14.7 21 Sur 38 Sur 0 -- -- 54
2020-01-09 14:00:00 15.2 13 Sur 33 Sur 0 -- -- 53
2020-01-09 13:00:00 13.4 14 Sur 42 Sur 0 -- -- 61
2020-01-09 12:00:00 13.7 14 Sur 29 Sur 0 -- -- 60
2020-01-09 11:00:00 11.8 12 Sur 22 Sudoeste 0 -- -- 67
2020-01-09 10:00:00 10.5 5 Sudeste 21 Sudeste 0 -- -- 72
2020-01-09 09:00:00 9.8 5 Sudeste 27 Sudeste 0 -- -- 74
2020-01-09 08:00:00 9.1 8 Sudeste 27 Sudeste 0 -- -- 78
2020-01-09 07:00:00 8 5 Sudeste 12 Sudeste 0 -- -- 83
2020-01-09 06:00:00 8.3 3 Noroeste 15 Sudeste 0 -- -- 81
2020-01-09 05:00:00 8.8 6 Sur 21 Sudeste 0 -- -- 76
2020-01-09 04:00:00 7.4 3 Sudoeste 11 Sudeste 0 -- -- 83
2020-01-09 03:00:00 7.6 2 Norte 10 Sur 0 -- -- 82
2020-01-09 02:00:00 8.5 6 Sur 17 Sur 0 -- -- 78
2020-01-09 01:00:00 8.4 2 Sudeste 16 Sudeste 0 -- -- 82
2020-01-09 00:00:00 9.3 3 Sur 8 Sur 0 -- -- 80
2020-01-08 23:00:00 7.6 2 Noroeste 17 Sur 0 -- -- 85
2020-01-08 22:00:00 6.4 0 Calma 6 Noroeste 0 -- -- 90
2020-01-08 21:00:00 7.3 3 Norte 6 Norte 0 -- -- 90
2020-01-08 20:00:00 8.4 3 Noroeste 6 Noroeste 0 -- -- 95
2020-01-08 19:00:00 10 3 Norte 6 Norte 0 -- -- 93
2020-01-08 18:00:00 11.7 2 Norte 5 Norte 0 -- -- 87
2020-01-08 17:00:00 14.3 4 Noroeste 6 Noroeste 0 -- -- 76
2020-01-08 16:00:00 16 3 Noroeste 10 Este 0 -- -- 69
2020-01-08 15:00:00 16.1 4 Sur 6 Sudeste 0 -- -- 66
2020-01-08 14:00:00 14.3 3 Sudoeste 6 Sur 0 -- -- 78
2020-01-08 13:00:00 10.7 3 Sur 7 Sur 0 -- -- 100
2020-01-08 12:00:00 7 3 Sur 6 Norte 0 -- -- 100
2020-01-08 11:00:00 4.9 2 Sur 5 Sudoeste 0 -- -- 100
2020-01-08 10:00:00 3.8 2 Noroeste 6 Sudeste 0 -- -- 100
2020-01-08 09:00:00 3.5 0 Calma 3 Sudeste 0 -- -- 100
2020-01-08 08:00:00 3.6 0 Calma 4 Norte 0 -- -- 100
2020-01-08 07:00:00 3.5 0 Calma 10 Sudeste 0 -- -- 100
2020-01-08 06:00:00 3.7 0 Calma 4 Norte 0 -- -- 100
2020-01-08 05:00:00 3.9 0 Calma 2 Nordeste 0 -- -- 100
2020-01-08 04:00:00 4 3 Sudeste 6 Sudeste 0 -- -- 100
2020-01-08 03:00:00 4.4 0 Calma 5 Sudeste 0 -- -- 100
2020-01-08 02:00:00 4.5 3 Sudeste 7 Sudeste 0 -- -- 100
2020-01-08 01:00:00 4.8 0 Calma 7 Sudeste 0 -- -- 100
2020-01-08 00:00:00 5.3 0 Calma 4 Noroeste 0 -- -- 100
2020-01-07 23:00:00 5.7 0 Calma 2 Norte 0 -- -- 100
2020-01-07 22:00:00 6.1 0 Calma 4 Norte 0 -- -- 100
2020-01-07 21:00:00 6.7 0 Calma 4 Sudeste 0 -- -- 98
2020-01-07 20:00:00 7.6 0 Calma 4 Noroeste 0 -- -- 95
2020-01-07 19:00:00 8.8 0 Calma 4 Norte 0 -- -- 92
2020-01-07 18:00:00 10.2 2 Noroeste 5 Norte 0 -- -- 88
2020-01-07 17:00:00 12.4 3 Norte 8 Este 0 -- -- 78
2020-01-07 16:00:00 14.4 3 Este 8 Este 0 -- -- 66
2020-01-07 15:00:00 14.1 4 Sudeste 7 Este 0 -- -- 67
2020-01-07 14:00:00 12.3 3 Sudoeste 8 Sur 0 -- -- 72
2020-01-07 13:00:00 10 3 Sudoeste 6 Sur 0 -- -- 84
2020-01-07 12:00:00 5.4 3 Noroeste 6 Norte 0 -- -- 100
2020-01-07 11:00:00 3.1 0 Calma 6 Sur 0 -- -- 100
2020-01-07 10:00:00 1.6 3 Norte 7 Sudeste 0 -- -- 100
2020-01-07 09:00:00 1.1 4 Sudeste 9 Sudeste 0 -- -- 100
2020-01-07 08:00:00 1.5 4 Norte 6 Sudeste 0 -- -- 100
2020-01-07 07:00:00 1.5 4 Sudeste 6 Sudeste 0 -- -- 100
2020-01-07 06:00:00 2.1 4 Norte 5 Norte 0 -- -- 100
2020-01-07 05:00:00 2.1 2 Norte 11 Sudeste 0 -- -- 100
2020-01-07 04:00:00 3 3 Noroeste 8 Norte 0 -- -- 100
2020-01-07 03:00:00 3.2 4 Norte 5 Norte 0 -- -- 100
2020-01-07 02:00:00 3.2 4 Sudeste 9 Sudeste 0 -- -- 100
2020-01-07 01:00:00 2.8 2 Noroeste 5 Sudeste 0 -- -- 100
2020-01-07 00:00:00 3.2 2 Sudeste 4 Sudeste 0 -- -- 99
2020-01-06 23:00:00 3.6 3 Sudeste 6 Sudeste 0 -- -- 98
2020-01-06 22:00:00 4.5 2 Noroeste 8 Norte 0 -- -- 97
2020-01-06 21:00:00 5.1 0 Calma 6 Norte 0 -- -- 96
2020-01-06 20:00:00 5.5 3 Sudeste 11 Noroeste 0 -- -- 92
2020-01-06 19:00:00 7.2 4 Norte 6 Norte 0 -- -- 85
2020-01-06 18:00:00 9 9 Norte 23 Norte 0 -- -- 79
2020-01-06 17:00:00 11.6 12 Norte 19 Norte 0 -- -- 66
2020-01-06 16:00:00 13.1 5 Noroeste 11 Sudeste 0 -- -- 63
2020-01-06 15:00:00 13.6 8 Sudeste 13 Este 0 -- -- 57
2020-01-06 14:00:00 13 3 Sur 6 Sudeste 0 -- -- 65
2020-01-06 13:00:00 9.9 3 Oeste 10 Sudeste 0 -- -- 73
2020-01-06 12:00:00 6.8 2 Sudoeste 5 Sudeste 0 -- -- 86
2020-01-06 11:00:00 3.5 3 Sur 5 Sur 0 -- -- 100
2020-01-06 10:00:00 0.5 0 Calma 6 Este 0 -- -- 100